San Francisco International Airport
KSFO : rendu visible

Aérodrome :











RETROUVEZ-NOUS SUR...

 
LOGIN :

S'inscrire | Disclaimer

   EN    FR    IT 

 









Légende :    VFR   VFR Marginal   IFR   IFR Intensif   IFR Très Intensif
Visi : 
Plafond : 
>= 8 km
>= 3000ft
5 à 8 km
1000 à 3000 ft
1500m à 5 km
500 à 1000 ft
800 à 1500m
200 à 500 ft
< 800m
< 200 ft
Symboles :   Orages  Brouillard  Fortes neiges  Fortes précipitations  Vent > 20 kt






- Altitude de l'aérodrome : 13 ft
- Code IATA : SFO


KSFO - San Francisco International

DERNIER METAR :
  • 072256Z 31009KT 10SM FEW017 25/13 A2990 RMK AO2 SLP125 T02500133

METARs EXPIRÉS :
  • 072156Z 03007KT 10SM FEW150 23/14 A2991 RMK AO2 SLP130 T02330144
  • 072056Z 02008KT 10SM FEW010 23/14 A2992 RMK AO2 SLP131 T02280144 58006

TAF KSFO
Valide du 07 à 21h jusqu'au 09 à 00h UTC


072105Z 0721/0824 34008KT P6SM FEW010
FM072200 30012KT P6SM FEW010
FM072300 28016G22KT P6SM FEW008
FM080300 28011KT P6SM FEW008
FM080800 29008KT P6SM SCT010
FM081100 28006KT P6SM BKN008
FM081700 05006KT P6SM SCT012
FM082000 27013KT P6SM FEW015
FIR KZOA / Amérique du Nord



MET'MAP, la Météo Aéronautique d'un coup d'oeil ! - Copyright ORBIFLY Décembre 2007 - Disclaimer

ORBIFLY MET'MAP TEAM :

Programmation & Développement : Alexandra Zaïnal
Sur une idée originale de : Baudouin d'Aumeries
Assistance à la programmation : Marc-Olivier Méhu
Soutien technique & logistique : Manuel Goepfert

Contact : metmap@orbifly.com




SOURCES & CREDITS :

   NOAA       Earth
Advisory